createdAt,value
2022-11-25T00:01:33.465Z,31.10
2022-11-25T00:04:01.614Z,39.73
2022-11-25T00:06:35.505Z,57.73
2022-11-25T00:09:12.819Z,55.77
2022-11-25T00:11:42.947Z,36.97
2022-11-25T00:14:15.609Z,44.30
2022-11-25T00:16:48.127Z,51.97
2022-11-25T00:19:16.481Z,59.37
2022-11-25T00:21:43.640Z,69.03
2022-11-25T00:24:13.135Z,33.47
2022-11-25T00:26:40.166Z,34.87
2022-11-25T00:29:11.244Z,42.90
2022-11-25T00:31:40.595Z,33.43
2022-11-25T00:34:11.821Z,35.10
2022-11-25T00:36:38.942Z,36.03
2022-11-25T00:39:17.503Z,36.57
2022-11-25T00:42:05.194Z,64.77
2022-11-25T00:44:42.039Z,49.33
2022-11-25T00:47:20.462Z,78.33
2022-11-25T00:49:51.453Z,81.07
2022-11-25T00:52:27.524Z,61.57
2022-11-25T00:54:54.909Z,74.40
2022-11-25T00:57:24.303Z,45.10
2022-11-25T00:59:51.452Z,36.10
2022-11-25T01:02:19.986Z,38.63
2022-11-25T01:04:47.442Z,44.07
2022-11-25T01:07:16.781Z,37.77
2022-11-25T01:09:44.074Z,36.70
2022-11-25T01:12:11.175Z,73.37
2022-11-25T01:14:38.799Z,82.80
2022-11-25T01:17:06.351Z,51.43
2022-11-25T01:19:34.468Z,36.33
2022-11-25T01:22:01.538Z,43.87
2022-11-25T01:24:28.553Z,53.53
2022-11-25T01:26:56.017Z,37.10
2022-11-25T01:29:23.366Z,63.40
2022-11-25T01:31:51.123Z,150.47
2022-11-25T01:34:23.563Z,65.97
2022-11-25T01:36:51.397Z,76.57
2022-11-25T01:39:27.032Z,87.50
2022-11-25T01:42:01.050Z,95.13
2022-11-25T01:44:32.181Z,60.57
2022-11-25T01:47:04.790Z,56.80
2022-11-25T01:49:37.280Z,86.40
2022-11-25T01:52:25.012Z,75.10
2022-11-25T01:55:14.349Z,61.17
2022-11-25T01:57:54.421Z,135.13
2022-11-25T02:00:22.219Z,679.13
2022-11-25T02:02:53.160Z,106.30
2022-11-25T02:06:07.240Z,99.73
2022-11-25T02:08:34.329Z,59.47
2022-11-25T02:11:04.635Z,63.87
2022-11-25T02:13:33.322Z,67.97
2022-11-25T02:16:00.649Z,59.20
2022-11-25T02:18:28.097Z,81.10
2022-11-25T02:20:55.495Z,65.73
2022-11-25T02:23:52.333Z,50.90
2022-11-25T02:26:20.328Z,84.07
2022-11-25T02:28:48.702Z,65.00
2022-11-25T02:31:23.849Z,57.70
2022-11-25T02:33:51.033Z,66.10
2022-11-25T02:36:22.868Z,54.90
2022-11-25T02:39:00.663Z,67.33
2022-11-25T02:41:42.555Z,88.10
2022-11-25T02:44:09.994Z,64.77
2022-11-25T02:46:37.186Z,112.13
2022-11-25T02:49:09.220Z,61.27
2022-11-25T02:51:40.418Z,72.43
2022-11-25T02:54:08.049Z,178.97
2022-11-25T02:56:37.110Z,101.23
2022-11-25T02:59:04.899Z,64.33
2022-11-25T03:01:33.261Z,68.80
2022-11-25T03:04:01.012Z,65.57
2022-11-25T03:06:29.858Z,105.97
2022-11-25T03:08:57.809Z,104.27
2022-11-25T03:11:45.499Z,72.63
2022-11-25T03:14:12.775Z,73.83
2022-11-25T03:16:40.023Z,67.43
2022-11-25T03:19:08.449Z,256.20
2022-11-25T03:21:35.494Z,462.30
2022-11-25T03:24:02.541Z,311.27
2022-11-25T03:26:29.617Z,193.37
2022-11-25T03:28:56.762Z,190.23
2022-11-25T03:31:23.812Z,472.13
2022-11-25T03:33:50.862Z,426.43
2022-11-25T03:36:17.851Z,312.83
2022-11-25T03:38:44.848Z,109.23
2022-11-25T03:41:15.958Z,194.27
2022-11-25T03:43:42.951Z,221.00
2022-11-25T03:46:10.042Z,84.93
2022-11-25T03:48:37.249Z,229.63
2022-11-25T03:51:07.751Z,229.77
2022-11-25T03:53:37.237Z,307.23
2022-11-25T03:56:09.822Z,135.23
2022-11-25T03:58:48.450Z,109.73
2022-11-25T04:01:15.501Z,57.97
2022-11-25T04:03:42.679Z,123.43
2022-11-25T04:06:12.734Z,77.23
2022-11-25T04:08:39.756Z,131.10
2022-11-25T04:11:06.831Z,152.50
2022-11-25T04:13:35.330Z,105.00
2022-11-25T04:16:02.635Z,248.27
2022-11-25T04:18:29.929Z,103.50
2022-11-25T04:20:58.055Z,128.07
2022-11-25T04:23:28.303Z,90.50
2022-11-25T04:25:55.664Z,84.50
2022-11-25T04:28:22.632Z,85.87
2022-11-25T04:30:49.903Z,104.93
2022-11-25T04:33:17.164Z,93.90
2022-11-25T04:35:45.463Z,96.17
2022-11-25T04:38:15.930Z,212.63
2022-11-25T04:40:43.086Z,84.77
2022-11-25T04:43:15.947Z,113.10
2022-11-25T04:46:12.546Z,511.00
2022-11-25T04:48:30.209Z,110.90
2022-11-25T04:50:57.255Z,200.23
2022-11-25T04:53:26.748Z,355.83
2022-11-25T04:55:53.969Z,566.37
2022-11-25T04:58:41.017Z,88.87
2022-11-25T05:01:08.070Z,193.03
2022-11-25T05:03:35.326Z,125.63
2022-11-25T05:06:10.255Z,76.43
2022-11-25T05:08:37.189Z,415.97
2022-11-25T05:11:04.292Z,337.53
2022-11-25T05:13:31.284Z,147.90
2022-11-25T05:16:00.433Z,121.53
2022-11-25T05:18:27.571Z,146.97
2022-11-25T05:20:54.579Z,146.53
2022-11-25T05:23:24.510Z,105.83
2022-11-25T05:25:51.518Z,86.63
2022-11-25T05:28:18.627Z,133.47
2022-11-25T05:30:45.803Z,133.90
2022-11-25T05:33:13.000Z,141.30
2022-11-25T05:35:40.009Z,106.67
2022-11-25T05:38:07.022Z,84.47
2022-11-25T05:40:34.528Z,101.00
2022-11-25T05:43:02.996Z,95.70
2022-11-25T05:45:29.991Z,80.07
2022-11-25T05:47:59.672Z,99.73
2022-11-25T05:50:26.647Z,108.83
2022-11-25T05:52:53.679Z,76.83
2022-11-25T05:55:21.000Z,132.77
2022-11-25T05:57:47.985Z,99.87
2022-11-25T06:00:15.712Z,180.57
2022-11-25T06:02:43.114Z,285.07
2022-11-25T06:05:10.185Z,66.80
2022-11-25T06:07:37.195Z,90.10
2022-11-25T06:10:05.082Z,194.07
2022-11-25T06:12:32.075Z,70.03
2022-11-25T06:14:59.330Z,120.97
2022-11-25T06:17:26.555Z,64.63
2022-11-25T06:19:53.750Z,93.67
2022-11-25T06:22:21.004Z,137.13
2022-11-25T06:24:55.383Z,105.10
2022-11-25T06:27:26.174Z,63.53
2022-11-25T06:29:55.907Z,87.47
2022-11-25T06:32:23.373Z,101.20
2022-11-25T06:34:50.395Z,107.27
2022-11-25T06:37:18.083Z,80.83
2022-11-25T06:39:45.271Z,55.60
2022-11-25T06:42:12.331Z,90.57
2022-11-25T06:44:39.408Z,80.73
2022-11-25T06:47:06.732Z,59.50
2022-11-25T06:49:34.181Z,58.70
2022-11-25T06:52:01.615Z,132.10
2022-11-25T06:54:29.019Z,81.47
2022-11-25T06:56:56.182Z,86.47
2022-11-25T06:59:26.607Z,87.30
2022-11-25T07:01:53.695Z,86.60
2022-11-25T07:04:20.815Z,149.53
2022-11-25T07:06:50.642Z,110.00
2022-11-25T07:09:19.500Z,123.57
2022-11-25T07:11:47.090Z,176.37
2022-11-25T07:14:17.196Z,52.60
2022-11-25T07:16:46.032Z,87.60
2022-11-25T07:19:17.286Z,131.27
2022-11-25T07:21:46.376Z,78.00
2022-11-25T07:24:26.080Z,124.93
2022-11-25T07:26:53.157Z,194.70
2022-11-25T07:29:50.451Z,254.20
2022-11-25T07:32:10.815Z,177.47
2022-11-25T07:34:38.416Z,526.17
2022-11-25T07:37:05.545Z,618.77
2022-11-25T07:39:32.859Z,474.13
2022-11-25T07:41:59.921Z,458.43
2022-11-25T07:44:27.049Z,366.17
2022-11-25T07:46:54.128Z,265.03
2022-11-25T07:49:26.933Z,652.07
2022-11-25T07:52:01.305Z,688.63
2022-11-25T07:54:31.143Z,347.50
2022-11-25T07:56:58.332Z,400.63
2022-11-25T07:59:25.709Z,533.43
2022-11-25T08:01:55.616Z,521.40
2022-11-25T08:04:23.819Z,651.73
2022-11-25T08:06:53.545Z,685.43
2022-11-25T08:09:23.945Z,615.17
2022-11-25T08:11:51.482Z,517.47
2022-11-25T08:14:21.793Z,391.80
2022-11-25T08:16:51.933Z,193.13
2022-11-25T08:19:19.723Z,306.03
2022-11-25T08:21:50.103Z,482.97
2022-11-25T08:24:20.907Z,274.27
2022-11-25T08:26:49.149Z,331.93
2022-11-25T08:29:19.307Z,845.13
2022-11-25T08:31:47.026Z,269.00
2022-11-25T08:34:24.064Z,283.90
2022-11-25T08:36:52.002Z,267.60
2022-11-25T08:39:51.067Z,444.57
2022-11-25T08:42:09.418Z,339.77
2022-11-25T08:44:37.617Z,184.93
2022-11-25T08:47:04.884Z,352.17
2022-11-25T08:49:37.525Z,232.30
2022-11-25T08:52:07.815Z,410.23
2022-11-25T08:54:35.201Z,89.37
2022-11-25T08:57:02.628Z,393.93
2022-11-25T08:59:29.637Z,453.33
2022-11-25T09:01:56.781Z,94.70
2022-11-25T09:04:23.851Z,166.93
2022-11-25T09:06:50.841Z,196.03
2022-11-25T09:09:17.936Z,423.37
2022-11-25T09:11:45.164Z,172.27
2022-11-25T09:14:12.734Z,184.23
2022-11-25T09:16:40.249Z,240.10
2022-11-25T09:19:07.278Z,244.10
2022-11-25T09:21:34.305Z,136.90
2022-11-25T09:24:01.342Z,295.57
2022-11-25T09:26:35.720Z,126.57
2022-11-25T09:29:03.509Z,52.53
2022-11-25T09:31:30.640Z,300.37
2022-11-25T09:33:57.801Z,216.37
2022-11-25T09:36:25.190Z,447.03
2022-11-25T09:38:52.935Z,167.70
2022-11-25T09:41:52.630Z,71.73
2022-11-25T09:45:14.506Z,142.77
2022-11-25T09:48:06.170Z,258.43
2022-11-25T09:51:09.246Z,58.50
2022-11-25T09:53:47.406Z,49.30
2022-11-25T09:56:38.244Z,58.10
2022-11-25T09:59:08.076Z,137.17
2022-11-25T10:01:59.202Z,94.93
2022-11-25T10:04:45.569Z,131.17
2022-11-25T10:07:33.166Z,195.30
2022-11-25T10:10:05.364Z,59.67
2022-11-25T10:12:42.444Z,70.73
2022-11-25T10:15:23.426Z,78.77
2022-11-25T10:18:00.601Z,53.47
2022-11-25T10:20:35.498Z,113.63
2022-11-25T10:23:12.163Z,82.40
2022-11-25T10:25:46.585Z,104.70
2022-11-25T10:28:24.672Z,103.37
2022-11-25T10:31:19.851Z,48.30
2022-11-25T10:33:58.507Z,85.17
2022-11-25T10:36:36.995Z,73.33
2022-11-25T10:39:26.973Z,81.63
2022-11-25T10:42:07.134Z,80.60
2022-11-25T10:44:39.982Z,106.90
2022-11-25T10:47:52.251Z,39.83
2022-11-25T10:51:18.075Z,45.47
2022-11-25T10:54:16.339Z,38.37
2022-11-25T10:57:16.901Z,59.50
2022-11-25T11:00:00.309Z,80.33
2022-11-25T11:02:34.402Z,78.30
2022-11-25T11:05:31.196Z,56.63
2022-11-25T11:08:39.173Z,42.57
2022-11-25T11:11:23.079Z,50.67
2022-11-25T11:13:59.170Z,146.57
2022-11-25T11:16:45.555Z,48.37
2022-11-25T11:19:30.899Z,68.40
2022-11-25T11:22:16.324Z,48.07
2022-11-25T11:24:43.512Z,93.70
2022-11-25T11:27:10.330Z,56.63
2022-11-25T11:29:37.391Z,81.70
2022-11-25T11:32:08.011Z,36.80
2022-11-25T11:35:16.874Z,33.57
2022-11-25T11:37:47.563Z,32.50
2022-11-25T11:40:46.475Z,49.33
2022-11-25T11:44:07.744Z,36.13
2022-11-25T11:46:51.878Z,34.50
2022-11-25T11:50:22.092Z,37.67
2022-11-25T11:53:16.186Z,32.83
2022-11-25T11:56:35.202Z,44.23
2022-11-25T11:59:51.197Z,28.27
2022-11-25T12:02:24.680Z,38.90
2022-11-25T12:05:09.548Z,33.07
2022-11-25T12:08:06.685Z,31.87
2022-11-25T12:10:45.801Z,30.87
2022-11-25T12:14:00.708Z,40.80
2022-11-25T12:16:47.607Z,39.33
2022-11-25T12:19:38.838Z,45.47
2022-11-25T12:22:36.634Z,51.23
2022-11-25T12:25:23.837Z,50.63
2022-11-25T12:28:29.284Z,60.87
2022-11-25T12:31:42.124Z,38.30
2022-11-25T12:34:27.645Z,49.03
2022-11-25T12:37:14.995Z,46.30
2022-11-25T12:40:26.885Z,44.80
2022-11-25T12:43:12.557Z,41.00
2022-11-25T12:45:41.591Z,36.97
2022-11-25T12:48:11.853Z,57.70
2022-11-25T12:51:07.163Z,55.13
2022-11-25T12:54:03.894Z,39.50
2022-11-25T12:57:45.857Z,62.93
2022-11-25T13:00:43.229Z,47.20
2022-11-25T13:03:54.454Z,35.80
2022-11-25T13:06:59.167Z,64.43
2022-11-25T13:09:59.888Z,48.30
2022-11-25T13:13:07.052Z,66.63
2022-11-25T13:15:49.566Z,38.63
2022-11-25T13:18:25.995Z,40.03
2022-11-25T13:21:05.538Z,55.13
2022-11-25T13:23:56.095Z,99.90
2022-11-25T13:26:33.670Z,70.43
2022-11-25T13:29:14.968Z,103.97
2022-11-25T13:32:08.245Z,97.73
2022-11-25T13:34:36.800Z,84.63
2022-11-25T13:37:40.814Z,49.43
2022-11-25T13:40:26.268Z,73.93
2022-11-25T13:42:58.137Z,81.03
2022-11-25T13:45:44.331Z,70.50
2022-11-25T13:48:37.018Z,76.00
2022-11-25T13:51:23.648Z,45.10
2022-11-25T13:54:04.721Z,96.43
2022-11-25T13:56:37.545Z,75.97
2022-11-25T13:59:10.448Z,48.10
2022-11-25T14:02:17.728Z,53.50
2022-11-25T14:05:55.936Z,65.17
2022-11-25T14:08:59.764Z,64.77
2022-11-25T14:12:21.097Z,52.63
2022-11-25T14:15:31.115Z,63.63
2022-11-25T14:19:00.345Z,61.30
2022-11-25T14:21:38.274Z,68.67
2022-11-25T14:24:30.877Z,63.50
2022-11-25T14:27:00.686Z,53.83
2022-11-25T14:29:42.089Z,82.27
2022-11-25T14:32:35.375Z,60.60
2022-11-25T14:35:45.105Z,55.90
2022-11-25T14:38:57.272Z,49.63
2022-11-25T14:42:00.484Z,52.20
2022-11-25T14:44:53.183Z,107.97
2022-11-25T14:47:27.877Z,81.07
2022-11-25T14:52:47.717Z,74.07
2022-11-25T14:55:31.276Z,65.20
2022-11-25T14:57:58.494Z,71.40
2022-11-25T15:00:25.743Z,117.47
2022-11-25T15:03:06.698Z,59.00
2022-11-25T15:05:39.507Z,98.33
2022-11-25T15:08:18.025Z,115.23
2022-11-25T15:11:03.841Z,76.53
2022-11-25T15:13:59.780Z,137.60
2022-11-25T15:16:41.482Z,95.97
2022-11-25T15:19:24.721Z,83.63
2022-11-25T15:24:56.352Z,137.03
2022-11-25T15:27:28.756Z,238.53
2022-11-25T15:29:58.932Z,298.70
2022-11-25T15:32:30.885Z,77.10
2022-11-25T15:35:01.564Z,60.80
2022-11-25T15:37:29.277Z,101.67
2022-11-25T15:40:37.321Z,47.23
2022-11-25T15:43:28.406Z,54.97
2022-11-25T15:46:03.248Z,59.73
2022-11-25T15:48:46.704Z,100.17
2022-11-25T15:51:49.352Z,95.37
2022-11-25T15:54:21.488Z,60.27
2022-11-25T15:56:53.362Z,173.60
2022-11-25T15:59:41.825Z,67.13
2022-11-25T16:02:48.460Z,115.17
2022-11-25T16:05:15.330Z,121.10
2022-11-25T16:07:51.435Z,155.53
2022-11-25T16:10:32.999Z,89.57
2022-11-25T16:13:22.187Z,66.23
2022-11-25T16:16:07.326Z,162.00
2022-11-25T16:19:04.879Z,68.17
2022-11-25T16:21:46.100Z,71.57
2022-11-25T16:24:48.886Z,128.97
2022-11-25T16:27:26.899Z,63.03
2022-11-25T16:30:18.551Z,73.27
2022-11-25T16:32:45.638Z,60.07
2022-11-25T16:35:18.235Z,147.30
2022-11-25T16:37:48.833Z,70.17
2022-11-25T16:40:18.857Z,64.07
2022-11-25T16:42:50.063Z,64.67
2022-11-25T16:45:27.720Z,130.03
2022-11-25T16:47:55.241Z,103.67
2022-11-25T16:50:22.889Z,86.43
2022-11-25T16:52:50.084Z,151.23
2022-11-25T16:55:18.514Z,64.30
2022-11-25T16:57:45.853Z,46.73
2022-11-25T17:00:18.034Z,52.30
2022-11-25T17:02:45.945Z,120.17
2022-11-25T17:05:22.511Z,93.67
2022-11-25T17:07:50.348Z,46.13
2022-11-25T17:10:19.187Z,137.00
2022-11-25T17:12:48.545Z,107.83
2022-11-25T17:15:28.317Z,62.70
2022-11-25T17:17:55.444Z,53.47
2022-11-25T17:20:25.083Z,90.23
2022-11-25T17:22:53.988Z,154.73
2022-11-25T17:25:29.955Z,79.77
2022-11-25T17:28:00.956Z,113.63
2022-11-25T17:30:28.603Z,72.23
2022-11-25T17:33:10.839Z,58.87
2022-11-25T17:35:37.824Z,65.47
2022-11-25T17:38:21.284Z,82.03
2022-11-25T17:40:50.448Z,49.83
2022-11-25T17:43:20.890Z,60.97
2022-11-25T17:45:47.968Z,64.37
2022-11-25T17:48:18.583Z,65.33
2022-11-25T17:50:46.840Z,60.53
2022-11-25T17:53:13.906Z,58.23
2022-11-25T17:55:41.937Z,63.57
2022-11-25T17:58:14.580Z,45.90
2022-11-25T18:00:45.190Z,53.97
2022-11-25T18:03:18.829Z,85.70
2022-11-25T18:05:46.030Z,66.70
2022-11-25T18:08:13.015Z,61.23
2022-11-25T18:10:40.336Z,71.97
2022-11-25T18:13:07.377Z,47.87
2022-11-25T18:15:34.694Z,47.43
2022-11-25T18:18:06.831Z,73.07
2022-11-25T18:20:34.785Z,75.27
2022-11-25T18:23:01.938Z,64.00
2022-11-25T18:25:33.952Z,46.63
2022-11-25T18:28:03.353Z,63.37
2022-11-25T18:30:36.057Z,57.70
2022-11-25T18:33:06.103Z,51.30
2022-11-25T18:35:36.744Z,40.83
2022-11-25T18:38:05.681Z,61.97
2022-11-25T18:40:36.079Z,49.63
2022-11-25T18:43:04.739Z,45.00
2022-11-25T18:45:37.580Z,52.50
2022-11-25T18:48:25.226Z,50.63
2022-11-25T18:50:55.873Z,55.63
2022-11-25T18:53:23.532Z,65.90
2022-11-25T18:55:50.643Z,60.03
2022-11-25T18:58:19.934Z,54.50
2022-11-25T19:00:49.350Z,51.90
2022-11-25T19:03:25.826Z,49.50
2022-11-25T19:05:59.285Z,53.90
2022-11-25T19:08:26.449Z,45.37
2022-11-25T19:10:53.635Z,86.53
2022-11-25T19:13:33.164Z,38.10
2022-11-25T19:16:12.690Z,39.10
2022-11-25T19:18:40.424Z,53.57
2022-11-25T19:21:09.956Z,55.83
2022-11-25T19:23:36.939Z,48.50
2022-11-25T19:26:12.630Z,53.87
2022-11-25T19:28:40.412Z,43.37
2022-11-25T19:31:10.225Z,44.07
2022-11-25T19:33:41.599Z,39.83
2022-11-25T19:36:23.890Z,39.83
2022-11-25T19:38:51.615Z,52.23
2022-11-25T19:41:20.433Z,40.43
2022-11-25T19:43:47.573Z,40.87
2022-11-25T19:46:41.185Z,42.70
2022-11-25T19:49:19.799Z,44.27
2022-11-25T19:51:48.744Z,33.40
2022-11-25T19:54:19.433Z,50.57
2022-11-25T19:56:46.908Z,53.70
2022-11-25T19:59:13.895Z,69.43
2022-11-25T20:01:45.313Z,41.13
2022-11-25T20:04:22.192Z,35.40
2022-11-25T20:06:49.773Z,39.23
2022-11-25T20:09:16.880Z,69.60
2022-11-25T20:11:44.142Z,65.13
2022-11-25T20:14:12.397Z,41.97
2022-11-25T20:16:41.633Z,38.63
2022-11-25T20:19:17.699Z,41.53
2022-11-25T20:21:46.428Z,57.90
2022-11-25T20:24:18.830Z,30.47
2022-11-25T20:26:48.495Z,34.73
2022-11-25T20:29:24.674Z,39.63
2022-11-25T20:31:56.578Z,66.63
2022-11-25T20:34:24.714Z,33.47
2022-11-25T20:36:51.791Z,36.37
2022-11-25T20:39:20.522Z,42.90
2022-11-25T20:41:51.368Z,34.40
2022-11-25T20:44:19.870Z,37.50
2022-11-25T20:46:46.931Z,41.30
2022-11-25T20:49:27.655Z,42.93
2022-11-25T20:51:58.164Z,62.80
2022-11-25T20:54:25.500Z,66.83
2022-11-25T20:56:52.578Z,35.27
2022-11-25T20:59:23.797Z,49.07
2022-11-25T21:01:52.620Z,30.50
2022-11-25T21:04:20.289Z,31.07
2022-11-25T21:06:47.647Z,36.70
2022-11-25T21:09:24.836Z,57.83
2022-11-25T21:11:51.821Z,39.27
2022-11-25T21:14:20.241Z,51.50
2022-11-25T21:16:47.565Z,34.10
2022-11-25T21:19:15.131Z,35.33
2022-11-25T21:21:47.241Z,58.57
2022-11-25T21:24:28.355Z,29.30
2022-11-25T21:26:58.825Z,65.07
2022-11-25T21:29:26.848Z,68.90
2022-11-25T21:31:54.071Z,41.57
2022-11-25T21:34:21.518Z,58.90
2022-11-25T21:36:51.859Z,50.27
2022-11-25T21:39:34.041Z,52.00
2022-11-25T21:42:07.231Z,39.10
2022-11-25T21:44:41.165Z,58.77
2022-11-25T21:47:22.130Z,52.07
2022-11-25T21:49:50.283Z,33.90
2022-11-25T21:52:18.639Z,33.93
2022-11-25T21:54:46.404Z,44.17
2022-11-25T21:57:29.056Z,40.77
2022-11-25T21:59:56.347Z,31.77
2022-11-25T22:02:24.833Z,28.80
2022-11-25T22:04:52.829Z,31.43
2022-11-25T22:07:20.075Z,46.50
2022-11-25T22:09:47.261Z,40.83
2022-11-25T22:12:30.306Z,41.70
2022-11-25T22:14:59.498Z,35.70
2022-11-25T22:17:27.102Z,32.00
2022-11-25T22:19:54.547Z,38.43
2022-11-25T22:22:21.836Z,52.20
2022-11-25T22:24:49.055Z,31.27
2022-11-25T22:27:36.361Z,38.63
2022-11-25T22:30:05.819Z,64.73
2022-11-25T22:32:32.921Z,42.53
2022-11-25T22:35:03.179Z,30.40
2022-11-25T22:37:32.224Z,47.77
2022-11-25T22:39:59.475Z,60.57
2022-11-25T22:42:32.363Z,77.63
2022-11-25T22:45:03.519Z,70.30
2022-11-25T22:47:48.421Z,67.87
2022-11-25T22:50:32.152Z,65.40
2022-11-25T22:53:00.983Z,70.90
2022-11-25T22:55:33.764Z,102.73
2022-11-25T22:58:04.447Z,70.27
2022-11-25T23:00:51.897Z,82.27
2022-11-25T23:03:33.860Z,42.60
2022-11-25T23:06:03.125Z,63.10
2022-11-25T23:08:31.674Z,64.00
2022-11-25T23:10:59.082Z,119.23
2022-11-25T23:13:26.497Z,88.47
2022-11-25T23:15:58.209Z,78.07
2022-11-25T23:18:39.522Z,86.70
2022-11-25T23:21:24.004Z,74.07
2022-11-25T23:23:52.371Z,73.43
2022-11-25T23:26:19.501Z,65.30
2022-11-25T23:28:46.488Z,90.60
2022-11-25T23:31:16.079Z,49.77
2022-11-25T23:33:50.504Z,56.10
2022-11-25T23:36:46.151Z,80.63
2022-11-25T23:39:25.941Z,93.10
2022-11-25T23:41:54.196Z,79.67
2022-11-25T23:44:31.675Z,95.13
2022-11-25T23:47:04.313Z,110.47
2022-11-25T23:49:41.154Z,74.93
2022-11-25T23:52:13.721Z,113.67
2022-11-25T23:54:46.541Z,74.57
2022-11-25T23:57:22.321Z,51.50
2022-11-25T23:59:51.064Z,42.80
